CAL12 RCTP-KJFK
Flight info
| Callsign | CAL12 |
|---|---|
| Flight time | N/A |
| Altitude | 29000 |
| Route | MOLKA1C MOLKA M750 MUKEP Y891 OVSUN/N0509F300 Y893 IGMIS/N0510F290 Y57 POROT/N0505F310 Y809 IDLAN Y812 ADNAP OTR5 KALNA DCT 44N160E 49N170E/N0490F330 DCT AMOND DCT ALDOZ DCT ALUFF DCT SPY DCT DLG DCT HOM J617 JOH/N0479F350 DCT JAGIT DCT 61N130W 60N120W 5730N11000W 53N100W DCT GABOV/N0492F370 DCT TVC DCT TWIGS DCT JHW J106 MAGIO Q476 WLKES PUCKY1 |
| Aircraft | B77W/H-SDE1E2E3FGHIJ2J3J4J5M1RWXY/LB1D1 |
Departure
| Time | N/A |
|---|---|
| Airport | Taiwan Taoyuan International Airport (RCTP) |
Arrival
| Time | 2026-05-01 09:27 |
|---|---|
| Airport | John F. Kennedy International Airport (KJFK) |
| Time | Latitude | Longitude | Altitude | Speed | Heading |
|---|---|---|---|---|---|
| 2026-05-01 08:13 | 43.73504 | -84.00652 | 33002 ft | 518 kts | 134° |
| 2026-05-01 08:14 | 43.68786 | -83.93062 | 33004 ft | 517 kts | 134° |
| 2026-05-01 08:14 | 43.64049 | -83.85461 | 33005 ft | 517 kts | 134° |
| 2026-05-01 08:15 | 43.56945 | -83.74101 | 33004 ft | 517 kts | 134° |
| 2026-05-01 08:16 | 43.52190 | -83.66522 | 33004 ft | 518 kts | 134° |
| 2026-05-01 08:16 | 43.47455 | -83.58994 | 33007 ft | 519 kts | 134° |
| 2026-05-01 08:17 | 43.41886 | -83.50166 | 33007 ft | 518 kts | 134° |
| 2026-05-01 08:17 | 43.37921 | -83.43898 | 33004 ft | 517 kts | 134° |
| 2026-05-01 08:18 | 43.33164 | -83.36395 | 33000 ft | 518 kts | 134° |
| 2026-05-01 08:19 | 43.23620 | -83.21398 | 32979 ft | 519 kts | 135° |
| 2026-05-01 08:19 | 43.18861 | -83.13950 | 32980 ft | 518 kts | 135° |
| 2026-05-01 08:20 | 43.14083 | -83.06492 | 32981 ft | 518 kts | 135° |
| 2026-05-01 08:20 | 43.09577 | -82.99475 | 32981 ft | 518 kts | 135° |
| 2026-05-01 08:21 | 43.04852 | -82.92136 | 32981 ft | 518 kts | 135° |
| 2026-05-01 08:21 | 43.00092 | -82.84760 | 32985 ft | 517 kts | 135° |
| 2026-05-01 08:22 | 42.98391 | -82.82130 | 32983 ft | 518 kts | 135° |
| 2026-05-01 08:22 | 42.93737 | -82.74944 | 32991 ft | 518 kts | 135° |
| 2026-05-01 08:23 | 42.89016 | -82.67673 | 32997 ft | 518 kts | 135° |
| 2026-05-01 08:23 | 42.83570 | -82.59100 | 32998 ft | 521 kts | 129° |
| 2026-05-01 08:24 | 42.80747 | -82.52502 | 33005 ft | 529 kts | 116° |
| 2026-05-01 08:24 | 42.79121 | -82.45725 | 33006 ft | 532 kts | 104° |
| 2026-05-01 08:25 | 42.77313 | -82.34198 | 32999 ft | 534 kts | 104° |
| 2026-05-01 08:25 | 42.76013 | -82.26059 | 32984 ft | 534 kts | 104° |
| 2026-05-01 08:26 | 42.74118 | -82.14484 | 32990 ft | 534 kts | 104° |
| 2026-05-01 08:26 | 42.72743 | -82.06226 | 32984 ft | 534 kts | 105° |
| 2026-05-01 08:27 | 42.71077 | -81.96324 | 32979 ft | 534 kts | 105° |
| 2026-05-01 08:27 | 42.69121 | -81.84812 | 32986 ft | 535 kts | 105° |
| 2026-05-01 08:28 | 42.67715 | -81.76595 | 32983 ft | 535 kts | 105° |
| 2026-05-01 08:28 | 42.66009 | -81.66685 | 32984 ft | 533 kts | 105° |
| 2026-05-01 08:29 | 42.64303 | -81.56833 | 32988 ft | 537 kts | 105° |
| 2026-05-01 08:29 | 42.62593 | -81.47015 | 32992 ft | 535 kts | 105° |
| 2026-05-01 08:30 | 42.60880 | -81.37237 | 32987 ft | 537 kts | 105° |
| 2026-05-01 08:30 | 42.59221 | -81.27817 | 32969 ft | 536 kts | 105° |
| 2026-05-01 08:31 | 42.57549 | -81.18372 | 32983 ft | 537 kts | 106° |
| 2026-05-01 08:31 | 42.55883 | -81.09009 | 32978 ft | 539 kts | 105° |
| 2026-05-01 08:32 | 42.54104 | -80.99063 | 32981 ft | 539 kts | 106° |
| 2026-05-01 08:32 | 42.52331 | -80.89208 | 32984 ft | 541 kts | 106° |
| 2026-05-01 08:33 | 42.50526 | -80.79224 | 32988 ft | 539 kts | 105° |
| 2026-05-01 08:33 | 42.48746 | -80.69433 | 32989 ft | 541 kts | 106° |
| 2026-05-01 08:34 | 42.46915 | -80.59415 | 32993 ft | 542 kts | 106° |
| 2026-05-01 08:34 | 42.45094 | -80.49506 | 32992 ft | 541 kts | 105° |
| 2026-05-01 08:35 | 42.43261 | -80.39584 | 33001 ft | 541 kts | 105° |
| 2026-05-01 08:35 | 42.41436 | -80.29751 | 32986 ft | 541 kts | 106° |
| 2026-05-01 08:36 | 42.39587 | -80.19846 | 32985 ft | 542 kts | 106° |
| 2026-05-01 08:36 | 42.37730 | -80.09946 | 32989 ft | 543 kts | 106° |
| 2026-05-01 08:37 | 42.35873 | -80.00098 | 32992 ft | 541 kts | 106° |
| 2026-05-01 08:37 | 42.33993 | -79.90181 | 32977 ft | 542 kts | 107° |
| 2026-05-01 08:38 | 42.32095 | -79.80221 | 32978 ft | 544 kts | 106° |
| 2026-05-01 08:38 | 42.30209 | -79.70369 | 32986 ft | 544 kts | 106° |
| 2026-05-01 08:39 | 42.28292 | -79.60410 | 32980 ft | 544 kts | 106° |
| 2026-05-01 08:39 | 42.26381 | -79.50531 | 32971 ft | 543 kts | 106° |
| 2026-05-01 08:40 | 42.23485 | -79.35654 | 32971 ft | 546 kts | 106° |
| 2026-05-01 08:40 | 42.21550 | -79.25776 | 32971 ft | 545 kts | 107° |
| 2026-05-01 08:41 | 42.19593 | -79.15836 | 32960 ft | 545 kts | 107° |
| 2026-05-01 08:41 | 42.17330 | -79.05977 | 32966 ft | 546 kts | 111° |
| 2026-05-01 08:42 | 42.14910 | -78.96272 | 32965 ft | 544 kts | 111° |
| 2026-05-01 08:42 | 42.12457 | -78.86478 | 32957 ft | 545 kts | 110° |
| 2026-05-01 08:43 | 42.10017 | -78.76778 | 32952 ft | 544 kts | 110° |
| 2026-05-01 08:43 | 42.07565 | -78.67069 | 32954 ft | 544 kts | 110° |
| 2026-05-01 08:44 | 42.05130 | -78.57465 | 32957 ft | 543 kts | 110° |
| 2026-05-01 08:44 | 42.02658 | -78.47759 | 32956 ft | 543 kts | 110° |
| 2026-05-01 08:45 | 42.00188 | -78.38098 | 32966 ft | 543 kts | 110° |
| 2026-05-01 08:45 | 41.97707 | -78.28432 | 32963 ft | 542 kts | 111° |
| 2026-05-01 08:46 | 41.95300 | -78.19094 | 32970 ft | 540 kts | 111° |
| 2026-05-01 08:46 | 41.92790 | -78.09396 | 32958 ft | 540 kts | 111° |
| 2026-05-01 08:47 | 41.90303 | -77.99823 | 32958 ft | 540 kts | 111° |
| 2026-05-01 08:47 | 41.87808 | -77.90256 | 32960 ft | 537 kts | 111° |
| 2026-05-01 08:48 | 41.85567 | -77.81698 | 32945 ft | 539 kts | 111° |
| 2026-05-01 08:48 | 41.83184 | -77.72629 | 32951 ft | 539 kts | 111° |
| 2026-05-01 08:49 | 41.80664 | -77.63081 | 32955 ft | 538 kts | 111° |
| 2026-05-01 08:49 | 41.78155 | -77.53605 | 32967 ft | 538 kts | 111° |
| 2026-05-01 08:50 | 41.75708 | -77.44399 | 32976 ft | 537 kts | 111° |
| 2026-05-01 08:50 | 41.73375 | -77.35658 | 32970 ft | 537 kts | 111° |
| 2026-05-01 08:51 | 41.70822 | -77.26126 | 32958 ft | 537 kts | 112° |
| 2026-05-01 08:51 | 41.68359 | -77.16961 | 32949 ft | 537 kts | 112° |
| 2026-05-01 08:52 | 41.65862 | -77.07709 | 32952 ft | 536 kts | 112° |
| 2026-05-01 08:52 | 41.63300 | -76.98254 | 32943 ft | 536 kts | 112° |
| 2026-05-01 08:53 | 41.60825 | -76.89152 | 32942 ft | 536 kts | 112° |
| 2026-05-01 08:53 | 41.58373 | -76.80171 | 32943 ft | 535 kts | 112° |
| 2026-05-01 08:54 | 41.55813 | -76.70828 | 32941 ft | 535 kts | 112° |
| 2026-05-01 08:54 | 41.53251 | -76.61510 | 32939 ft | 536 kts | 112° |
| 2026-05-01 08:55 | 41.50677 | -76.52178 | 32937 ft | 535 kts | 112° |
| 2026-05-01 08:55 | 41.48109 | -76.42900 | 32935 ft | 534 kts | 112° |
| 2026-05-01 08:56 | 41.45535 | -76.33637 | 32933 ft | 535 kts | 113° |
| 2026-05-01 08:56 | 41.42961 | -76.24406 | 32919 ft | 535 kts | 113° |
| 2026-05-01 08:57 | 41.40569 | -76.15858 | 32926 ft | 533 kts | 113° |
| 2026-05-01 08:57 | 41.37948 | -76.06525 | 32877 ft | 530 kts | 113° |
| 2026-05-01 08:58 | 41.36658 | -76.01941 | 32307 ft | 530 kts | 113° |
| 2026-05-01 08:58 | 41.35334 | -75.97248 | 31460 ft | 538 kts | 113° |
| 2026-05-01 08:58 | 41.34011 | -75.92572 | 30692 ft | 543 kts | 113° |
| 2026-05-01 08:58 | 41.32673 | -75.87846 | 30032 ft | 541 kts | 113° |
| 2026-05-01 08:59 | 41.31323 | -75.83086 | 29398 ft | 537 kts | 113° |
| 2026-05-01 08:59 | 41.30015 | -75.78481 | 28837 ft | 532 kts | 113° |
| 2026-05-01 08:59 | 41.28702 | -75.73866 | 28273 ft | 527 kts | 113° |
| 2026-05-01 08:59 | 41.27399 | -75.69295 | 27708 ft | 522 kts | 113° |
| 2026-05-01 09:00 | 41.26024 | -75.64812 | 27148 ft | 515 kts | 117° |
| 2026-05-01 09:00 | 41.24554 | -75.60452 | 26580 ft | 510 kts | 117° |
| 2026-05-01 09:00 | 41.23081 | -75.56113 | 26021 ft | 505 kts | 117° |
| 2026-05-01 09:00 | 41.21612 | -75.51778 | 25451 ft | 500 kts | 117° |
| 2026-05-01 09:01 | 41.20150 | -75.47459 | 24875 ft | 496 kts | 117° |
| 2026-05-01 09:01 | 41.18702 | -75.43177 | 24293 ft | 491 kts | 117° |
| 2026-05-01 09:01 | 41.17292 | -75.39007 | 23731 ft | 486 kts | 117° |
| 2026-05-01 09:01 | 41.15891 | -75.34865 | 23160 ft | 481 kts | 117° |
| 2026-05-01 09:02 | 41.14524 | -75.30824 | 22652 ft | 474 kts | 117° |
| 2026-05-01 09:02 | 41.13197 | -75.26896 | 22590 ft | 463 kts | 117° |
| 2026-05-01 09:02 | 41.11858 | -75.22945 | 22544 ft | 466 kts | 117° |
| 2026-05-01 09:02 | 41.10521 | -75.19000 | 22439 ft | 465 kts | 117° |
| 2026-05-01 09:03 | 41.09179 | -75.15043 | 22310 ft | 464 kts | 117° |
| 2026-05-01 09:03 | 41.07845 | -75.11117 | 22186 ft | 461 kts | 117° |
| 2026-05-01 09:03 | 41.06517 | -75.07210 | 22046 ft | 461 kts | 117° |
| 2026-05-01 09:03 | 41.05170 | -75.03257 | 21905 ft | 460 kts | 117° |
| 2026-05-01 09:04 | 41.03851 | -74.99388 | 21764 ft | 459 kts | 117° |
| 2026-05-01 09:04 | 41.02525 | -74.95503 | 21640 ft | 458 kts | 117° |
| 2026-05-01 09:04 | 41.01202 | -74.91631 | 21514 ft | 457 kts | 117° |
| 2026-05-01 09:04 | 40.99981 | -74.87722 | 21369 ft | 458 kts | 110° |
| 2026-05-01 09:05 | 40.99214 | -74.83592 | 21232 ft | 459 kts | 101° |
| 2026-05-01 09:05 | 40.98700 | -74.79354 | 21107 ft | 458 kts | 100° |
| 2026-05-01 09:05 | 40.98222 | -74.75237 | 20968 ft | 456 kts | 100° |
| 2026-05-01 09:05 | 40.97720 | -74.70933 | 20839 ft | 456 kts | 100° |
| 2026-05-01 09:06 | 40.97234 | -74.66769 | 20693 ft | 454 kts | 100° |
| 2026-05-01 09:06 | 40.96734 | -74.62519 | 20573 ft | 453 kts | 100° |
| 2026-05-01 09:06 | 40.96251 | -74.58423 | 20426 ft | 451 kts | 99° |
| 2026-05-01 09:06 | 40.95750 | -74.54186 | 20276 ft | 450 kts | 100° |
| 2026-05-01 09:07 | 40.95259 | -74.50049 | 20118 ft | 448 kts | 100° |
| 2026-05-01 09:07 | 40.94770 | -74.45945 | 20015 ft | 447 kts | 99° |
| 2026-05-01 09:07 | 40.94281 | -74.41862 | 19890 ft | 446 kts | 100° |
| 2026-05-01 09:07 | 40.93789 | -74.37761 | 19758 ft | 445 kts | 99° |
| 2026-05-01 09:08 | 40.93324 | -74.33894 | 19636 ft | 445 kts | 101° |
| 2026-05-01 09:08 | 40.92835 | -74.29843 | 19493 ft | 443 kts | 101° |
| 2026-05-01 09:08 | 40.92381 | -74.26083 | 19365 ft | 435 kts | 101° |
| 2026-05-01 09:08 | 40.92228 | -74.24824 | 19323 ft | 431 kts | 101° |
| 2026-05-01 09:09 | 40.91774 | -74.21084 | 19205 ft | 417 kts | 101° |
| 2026-05-01 09:09 | 40.91320 | -74.17351 | 19087 ft | 403 kts | 101° |
| 2026-05-01 09:09 | 40.90437 | -74.12659 | 18928 ft | 381 kts | 115° |
| 2026-05-01 09:09 | 40.89763 | -74.10702 | 18814 ft | 372 kts | 122° |
| 2026-05-01 09:10 | 40.88451 | -74.07747 | 17923 ft | 378 kts | 125° |
| 2026-05-01 09:10 | 40.87273 | -74.05257 | 17115 ft | 381 kts | 126° |
| 2026-05-01 09:10 | 40.86295 | -74.03218 | 16533 ft | 380 kts | 126° |
| 2026-05-01 09:10 | 40.85020 | -74.00575 | 15830 ft | 378 kts | 126° |
| 2026-05-01 09:11 | 40.83817 | -73.98093 | 15177 ft | 375 kts | 126° |
| 2026-05-01 09:11 | 40.83256 | -73.96936 | 14868 ft | 374 kts | 126° |
| 2026-05-01 09:11 | 40.81685 | -73.93709 | 14009 ft | 370 kts | 126° |
| 2026-05-01 09:12 | 40.80167 | -73.90600 | 13188 ft | 367 kts | 126° |
| 2026-05-01 09:12 | 40.78972 | -73.88158 | 12529 ft | 365 kts | 126° |
| 2026-05-01 09:12 | 40.78299 | -73.86785 | 12157 ft | 363 kts | 126° |
| 2026-05-01 09:12 | 40.77122 | -73.84410 | 11587 ft | 357 kts | 126° |
| 2026-05-01 09:13 | 40.74412 | -73.78993 | 11348 ft | 319 kts | 126° |
| 2026-05-01 09:13 | 40.73220 | -73.76613 | 11342 ft | 304 kts | 126° |
| 2026-05-01 09:13 | 40.72075 | -73.74329 | 11335 ft | 289 kts | 127° |
| 2026-05-01 09:14 | 40.70981 | -73.72150 | 11209 ft | 280 kts | 127° |
| 2026-05-01 09:14 | 40.69891 | -73.69984 | 10859 ft | 281 kts | 126° |
| 2026-05-01 09:14 | 40.68825 | -73.67858 | 10568 ft | 279 kts | 126° |
| 2026-05-01 09:14 | 40.67757 | -73.65726 | 10266 ft | 277 kts | 126° |
| 2026-05-01 09:15 | 40.66698 | -73.63611 | 9989 ft | 274 kts | 126° |
| 2026-05-01 09:15 | 40.65646 | -73.61512 | 9656 ft | 274 kts | 125° |
| 2026-05-01 09:15 | 40.64595 | -73.59413 | 9375 ft | 272 kts | 125° |
| 2026-05-01 09:15 | 40.63551 | -73.57327 | 9059 ft | 271 kts | 125° |
| 2026-05-01 09:16 | 40.62496 | -73.55222 | 8774 ft | 269 kts | 125° |
| 2026-05-01 09:16 | 40.61462 | -73.53157 | 8502 ft | 267 kts | 124° |
| 2026-05-01 09:16 | 40.60438 | -73.51111 | 8188 ft | 267 kts | 124° |
| 2026-05-01 09:17 | 40.58400 | -73.47041 | 7644 ft | 263 kts | 124° |
| 2026-05-01 09:17 | 40.57389 | -73.45019 | 7365 ft | 261 kts | 124° |
| 2026-05-01 09:17 | 40.55392 | -73.41029 | 6807 ft | 258 kts | 124° |
| 2026-05-01 09:18 | 40.54406 | -73.39059 | 6525 ft | 257 kts | 124° |
| 2026-05-01 09:18 | 40.52364 | -73.35185 | 5929 ft | 254 kts | 138° |
| 2026-05-01 09:19 | 40.49242 | -73.34122 | 5534 ft | 223 kts | 204° |
| 2026-05-01 09:19 | 40.47998 | -73.35240 | 5231 ft | 209 kts | 238° |
| 2026-05-01 09:19 | 40.47522 | -73.36959 | 4988 ft | 197 kts | 269° |
| 2026-05-01 09:20 | 40.48238 | -73.40417 | 4977 ft | 197 kts | 297° |
| 2026-05-01 09:20 | 40.49534 | -73.43541 | 4980 ft | 196 kts | 301° |
| 2026-05-01 09:21 | 40.50936 | -73.46617 | 4982 ft | 196 kts | 302° |
| 2026-05-01 09:21 | 40.51645 | -73.48151 | 4978 ft | 196 kts | 302° |
| 2026-05-01 09:21 | 40.53087 | -73.51271 | 4463 ft | 197 kts | 303° |
| 2026-05-01 09:22 | 40.54479 | -73.54298 | 3939 ft | 186 kts | 303° |
| 2026-05-01 09:22 | 40.55778 | -73.57132 | 3446 ft | 175 kts | 304° |
| 2026-05-01 09:23 | 40.56402 | -73.58493 | 3207 ft | 171 kts | 304° |
| 2026-05-01 09:23 | 40.57607 | -73.61124 | 2750 ft | 162 kts | 304° |
| 2026-05-01 09:24 | 40.58741 | -73.63602 | 2303 ft | 148 kts | 305° |
| 2026-05-01 09:24 | 40.59276 | -73.64772 | 2100 ft | 148 kts | 305° |
| 2026-05-01 09:24 | 40.60312 | -73.67048 | 1700 ft | 145 kts | 305° |
| 2026-05-01 09:25 | 40.61309 | -73.69229 | 1306 ft | 135 kts | 304° |
| 2026-05-01 09:25 | 40.62287 | -73.71324 | 930 ft | 135 kts | 304° |
| 2026-05-01 09:26 | 40.62769 | -73.72355 | 741 ft | 138 kts | 303° |
| 2026-05-01 09:26 | 40.63749 | -73.74571 | 334 ft | 141 kts | 302° |
| 2026-05-01 09:26 | 40.64261 | -73.75690 | 158 ft | 140 kts | 302° |
| 2026-05-01 09:27 | 40.65155 | -73.77654 | 22 ft | 91 kts | 301° |
| 2026-05-01 09:27 | 40.65402 | -73.78200 | 23 ft | 46 kts | 300° |
| 2026-05-01 09:27 | 40.65550 | -73.78523 | 23 ft | 32 kts | 301° |
| 2026-05-01 09:28 | 40.65608 | -73.78677 | 23 ft | 12 kts | 264° |
| 2026-05-01 09:28 | 40.65548 | -73.78743 | 23 ft | 11 kts | 173° |
| 2026-05-01 09:28 | 40.65490 | -73.78670 | 23 ft | 11 kts | 122° |
| 2026-05-01 09:28 | 40.65447 | -73.78580 | 23 ft | 11 kts | 130° |
| 2026-05-01 09:29 | 40.65287 | -73.78449 | 23 ft | 14 kts | 127° |
| 2026-05-01 09:29 | 40.65239 | -73.78322 | 23 ft | 16 kts | 120° |
| 2026-05-01 09:30 | 40.65122 | -73.78061 | 23 ft | 17 kts | 120° |
| 2026-05-01 09:30 | 40.65060 | -73.77926 | 23 ft | 17 kts | 120° |
| 2026-05-01 09:30 | 40.64935 | -73.77651 | 23 ft | 16 kts | 120° |
| 2026-05-01 09:31 | 40.64877 | -73.77522 | 23 ft | 16 kts | 121° |
| 2026-05-01 09:31 | 40.64820 | -73.77398 | 23 ft | 15 kts | 121° |
| 2026-05-01 09:31 | 40.64711 | -73.77158 | 23 ft | 14 kts | 125° |
| 2026-05-01 09:32 | 40.64645 | -73.77099 | 23 ft | 10 kts | 161° |
| 2026-05-01 09:32 | 40.64500 | -73.77090 | 23 ft | 10 kts | 181° |
| 2026-05-01 09:32 | 40.64423 | -73.77113 | 23 ft | 12 kts | 205° |
| 2026-05-01 09:33 | 40.64343 | -73.77174 | 23 ft | 14 kts | 211° |
| 2026-05-01 09:33 | 40.64254 | -73.77245 | 22 ft | 14 kts | 210° |
| 2026-05-01 09:33 | 40.64091 | -73.77371 | 22 ft | 7 kts | 211° |
| 2026-05-01 09:34 | 40.64079 | -73.77422 | 22 ft | 7 kts | 277° |
| 2026-05-01 09:34 | 40.64101 | -73.77480 | 22 ft | 7 kts | 313° |
| 2026-05-01 09:34 | 40.64180 | -73.77550 | 22 ft | 6 kts | 329° |
| 2026-05-01 09:35 | 40.64220 | -73.77581 | 23 ft | 6 kts | 330° |
| 2026-05-01 09:35 | 40.64302 | -73.77642 | 23 ft | 6 kts | 330° |
| 2026-05-01 09:35 | 40.64344 | -73.77673 | 23 ft | 6 kts | 330° |
| 2026-05-01 09:36 | 40.64382 | -73.77706 | 23 ft | 6 kts | 318° |
| 2026-05-01 09:36 | 40.64411 | -73.77753 | 23 ft | 6 kts | 301° |
| 2026-05-01 09:36 | 40.64429 | -73.77799 | 23 ft | 5 kts | 283° |
| 2026-05-01 09:36 | 40.64421 | -73.77847 | 23 ft | 5 kts | 239° |
| 2026-05-01 09:37 | 40.64402 | -73.77889 | 23 ft | 4 kts | 239° |
| 2026-05-01 09:37 | 40.64389 | -73.77918 | 23 ft | 0 kts | 239° |